createdAt,value
2023-01-10T00:00:48.631Z,99334.97
2023-01-10T00:03:15.227Z,99340.34
2023-01-10T00:05:41.894Z,99349.44
2023-01-10T00:08:09.328Z,99361.00
2023-01-10T00:10:36.664Z,99354.84
2023-01-10T00:13:21.542Z,99371.47
2023-01-10T00:15:48.582Z,99370.94
2023-01-10T00:18:15.336Z,99381.63
2023-01-10T00:20:42.015Z,99388.06
2023-01-10T00:23:08.567Z,99399.31
2023-01-10T00:25:36.271Z,99405.72
2023-01-10T00:28:10.885Z,99417.50
2023-01-10T00:30:39.748Z,99409.47
2023-01-10T00:33:07.737Z,99414.84
2023-01-10T00:35:35.128Z,99423.41
2023-01-10T00:38:05.724Z,99432.00
2023-01-10T00:40:33.611Z,99437.13
2023-01-10T00:43:19.517Z,99447.56
2023-01-10T00:45:47.014Z,99450.25
2023-01-10T00:48:17.292Z,99456.16
2023-01-10T00:50:44.136Z,99462.06
2023-01-10T00:53:10.750Z,99473.38
2023-01-10T00:55:37.295Z,99481.41
2023-01-10T00:58:04.440Z,99494.25
2023-01-10T01:00:31.075Z,99489.41
2023-01-10T01:02:57.948Z,99493.97
2023-01-10T01:05:24.530Z,99494.22
2023-01-10T01:07:52.332Z,99497.72
2023-01-10T01:10:28.109Z,99495.81
2023-01-10T01:13:10.904Z,99518.84
2023-01-10T01:15:37.756Z,99516.69
2023-01-10T01:18:04.649Z,99529.03
2023-01-10T01:20:31.423Z,99541.88
2023-01-10T01:22:57.994Z,99537.03
2023-01-10T01:25:24.902Z,99551.22
2023-01-10T01:27:51.606Z,99551.00
2023-01-10T01:30:18.208Z,99548.84
2023-01-10T01:32:44.869Z,99557.44
2023-01-10T01:35:14.710Z,99565.22
2023-01-10T01:37:42.244Z,99563.59
2023-01-10T01:40:15.269Z,99574.59
2023-01-10T01:42:43.175Z,99572.69
2023-01-10T01:45:09.662Z,99586.06
2023-01-10T01:47:41.218Z,99589.03
2023-01-10T01:50:19.424Z,99589.28
2023-01-10T01:52:48.997Z,99589.53
2023-01-10T01:55:15.739Z,99584.16
2023-01-10T01:57:42.798Z,99587.91
2023-01-10T02:00:10.681Z,99582.53
2023-01-10T02:03:01.250Z,99594.31
2023-01-10T02:05:28.777Z,99601.75
2023-01-10T02:07:59.909Z,99605.75
2023-01-10T02:10:29.411Z,99599.03
2023-01-10T02:13:01.539Z,99604.88
2023-01-10T02:15:29.199Z,99595.75
2023-01-10T02:17:58.243Z,99598.41
2023-01-10T02:20:26.706Z,99605.56
2023-01-10T02:23:17.268Z,99608.44
2023-01-10T02:26:16.257Z,99610.03
2023-01-10T02:28:54.113Z,99602.53
2023-01-10T02:31:51.809Z,99607.84
2023-01-10T02:34:34.967Z,99618.00
2023-01-10T02:37:19.363Z,99620.66
2023-01-10T02:40:07.958Z,99618.47
2023-01-10T02:43:04.299Z,99620.25
2023-01-10T02:45:39.980Z,99623.69
2023-01-10T02:48:06.899Z,99629.00
2023-01-10T02:50:36.156Z,99634.34
2023-01-10T02:53:25.777Z,99637.75
2023-01-10T02:56:14.272Z,99638.28
2023-01-10T02:59:02.407Z,99643.38
2023-01-10T03:01:57.876Z,99653.03
2023-01-10T03:04:39.800Z,99661.28
2023-01-10T03:07:15.274Z,99661.00
2023-01-10T03:10:13.748Z,99659.41
2023-01-10T03:12:51.610Z,99671.72
2023-01-10T03:15:20.977Z,99671.22
2023-01-10T03:17:51.919Z,99677.34
2023-01-10T03:20:21.143Z,99681.41
2023-01-10T03:22:48.471Z,99672.88
2023-01-10T03:25:18.344Z,99692.72
2023-01-10T03:27:52.680Z,99689.00
2023-01-10T03:30:37.674Z,99692.56
2023-01-10T03:33:05.356Z,99701.13
2023-01-10T03:35:44.856Z,99704.88
2023-01-10T03:38:47.801Z,99708.78
2023-01-10T03:41:40.879Z,99698.34
2023-01-10T03:44:41.131Z,99710.91
2023-01-10T03:47:13.430Z,99700.44
2023-01-10T03:49:42.425Z,99716.78
2023-01-10T03:52:14.095Z,99715.72
2023-01-10T03:54:43.035Z,99714.66
2023-01-10T03:57:16.380Z,99736.13
2023-01-10T03:59:43.407Z,99734.56
2023-01-10T04:02:10.026Z,99734.13
2023-01-10T04:04:36.576Z,99743.50
2023-01-10T04:07:03.167Z,99757.44
2023-01-10T04:09:29.724Z,99752.41
2023-01-10T04:11:56.487Z,99759.72
2023-01-10T04:14:23.069Z,99748.72
2023-01-10T04:16:49.694Z,99745.50
2023-01-10T04:19:16.272Z,99744.19
2023-01-10T04:21:42.836Z,99749.06
2023-01-10T04:24:09.606Z,99761.34
2023-01-10T04:26:36.217Z,99761.00
2023-01-10T04:29:02.985Z,99760.44
2023-01-10T04:31:29.663Z,99754.34
2023-01-10T04:33:56.295Z,99750.84
2023-01-10T04:36:22.833Z,99741.75
2023-01-10T04:38:49.378Z,99751.34
2023-01-10T04:41:16.036Z,99762.00
2023-01-10T04:43:42.728Z,99763.56
2023-01-10T04:46:09.457Z,99771.91
2023-01-10T04:48:37.408Z,99778.59
2023-01-10T04:51:04.302Z,99772.16
2023-01-10T04:53:30.955Z,99770.28
2023-01-10T04:56:06.352Z,99794.66
2023-01-10T04:58:38.086Z,99787.72
2023-01-10T05:01:12.818Z,99795.25
2023-01-10T05:03:40.042Z,99793.16
2023-01-10T05:06:07.465Z,99797.69
2023-01-10T05:08:34.448Z,99790.97
2023-01-10T05:11:01.101Z,99801.13
2023-01-10T05:13:28.130Z,99814.44
2023-01-10T05:15:58.495Z,99821.63
2023-01-10T05:18:26.300Z,99809.53
2023-01-10T05:20:53.083Z,99807.44
2023-01-10T05:23:19.655Z,99805.78
2023-01-10T05:25:46.258Z,99812.22
2023-01-10T05:28:12.827Z,99820.25
2023-01-10T05:30:39.410Z,99825.03
2023-01-10T05:33:06.053Z,99828.53
2023-01-10T05:35:32.818Z,99826.91
2023-01-10T05:37:59.385Z,99819.94
2023-01-10T05:40:25.943Z,99814.88
2023-01-10T05:42:52.476Z,99835.50
2023-01-10T05:45:19.339Z,99829.34
2023-01-10T05:47:45.913Z,99831.53
2023-01-10T05:50:12.645Z,99838.97
2023-01-10T05:52:39.233Z,99834.41
2023-01-10T05:55:06.209Z,99847.50
2023-01-10T05:57:32.808Z,99842.91
2023-01-10T05:59:59.454Z,99852.09
2023-01-10T06:02:26.720Z,99841.03
2023-01-10T06:04:55.601Z,99841.81
2023-01-10T06:07:23.031Z,99858.78
2023-01-10T06:09:51.415Z,99859.78
2023-01-10T06:12:21.159Z,99869.22
2023-01-10T06:14:47.706Z,99871.38
2023-01-10T06:17:14.280Z,99880.94
2023-01-10T06:19:40.960Z,99875.19
2023-01-10T06:22:07.589Z,99885.81
2023-01-10T06:24:34.124Z,99880.38
2023-01-10T06:27:00.840Z,99874.78
2023-01-10T06:29:27.401Z,99883.47
2023-01-10T06:31:53.991Z,99875.69
2023-01-10T06:34:20.616Z,99870.19
2023-01-10T06:36:47.167Z,99887.16
2023-01-10T06:39:13.758Z,99894.28
2023-01-10T06:41:40.382Z,99890.66
2023-01-10T06:44:06.936Z,99889.66
2023-01-10T06:46:33.533Z,99893.03
2023-01-10T06:49:00.195Z,99896.69
2023-01-10T06:51:27.027Z,99896.25
2023-01-10T06:53:53.671Z,99910.44
2023-01-10T06:56:20.324Z,99916.72
2023-01-10T06:58:49.724Z,99914.28
2023-01-10T07:01:19.173Z,99924.56
2023-01-10T07:03:45.934Z,99928.97
2023-01-10T07:06:13.027Z,99927.47
2023-01-10T07:08:45.674Z,99930.81
2023-01-10T07:11:14.729Z,99933.03
2023-01-10T07:13:41.850Z,99939.63
2023-01-10T07:16:11.217Z,99941.44
2023-01-10T07:18:40.210Z,99955.75
2023-01-10T07:21:07.636Z,99954.63
2023-01-10T07:23:34.558Z,99968.25
2023-01-10T07:26:05.971Z,99951.06
2023-01-10T07:28:34.617Z,99961.66
2023-01-10T07:31:02.563Z,99973.69
2023-01-10T07:33:29.798Z,99967.78
2023-01-10T07:35:56.397Z,99978.94
2023-01-10T07:38:23.132Z,99983.16
2023-01-10T07:40:49.818Z,99983.63
2023-01-10T07:43:16.645Z,99976.19
2023-01-10T07:45:43.312Z,99980.09
2023-01-10T07:48:10.132Z,99994.13
2023-01-10T07:50:36.989Z,99991.31
2023-01-10T07:53:05.817Z,99993.22
2023-01-10T07:55:34.702Z,99999.78
2023-01-10T07:58:01.402Z,100002.03
2023-01-10T08:00:28.380Z,99994.06
2023-01-10T08:02:56.134Z,99998.94
2023-01-10T08:05:23.984Z,99999.50
2023-01-10T08:07:50.767Z,100012.44
2023-01-10T08:10:17.659Z,100009.16
2023-01-10T08:12:44.321Z,100004.56
2023-01-10T08:15:11.124Z,100016.81
2023-01-10T08:17:37.783Z,100013.88
2023-01-10T08:20:06.132Z,100020.84
2023-01-10T08:22:32.723Z,100026.13
2023-01-10T08:24:59.360Z,100026.97
2023-01-10T08:27:25.945Z,100030.09
2023-01-10T08:29:52.668Z,100033.03
2023-01-10T08:32:19.331Z,100038.41
2023-01-10T08:34:45.937Z,100030.09
2023-01-10T08:37:14.093Z,100031.00
2023-01-10T08:39:41.182Z,100030.53
2023-01-10T08:42:07.855Z,100031.66
2023-01-10T08:44:35.020Z,100036.28
2023-01-10T08:47:01.740Z,100050.81
2023-01-10T08:49:28.302Z,100043.59
2023-01-10T08:51:54.979Z,100042.53
2023-01-10T08:54:21.737Z,100039.88
2023-01-10T08:56:48.311Z,100042.47
2023-01-10T08:59:15.967Z,100045.38
2023-01-10T09:01:42.595Z,100051.78
2023-01-10T09:04:09.207Z,100050.75
2023-01-10T09:06:36.422Z,100054.31
2023-01-10T09:09:03.302Z,100056.50
2023-01-10T09:11:29.884Z,100057.56
2023-01-10T09:13:56.599Z,100051.63
2023-01-10T09:16:23.900Z,100050.09
2023-01-10T09:18:50.518Z,100049.44
2023-01-10T09:21:17.139Z,100052.03
2023-01-10T09:23:44.392Z,100050.47
2023-01-10T09:26:11.070Z,100049.97
2023-01-10T09:28:37.794Z,100050.06
2023-01-10T09:31:05.231Z,100049.41
2023-01-10T09:33:45.279Z,100047.97
2023-01-10T09:36:15.521Z,100049.59
2023-01-10T09:38:42.405Z,100041.31
2023-01-10T09:41:24.197Z,100046.16
2023-01-10T09:44:18.748Z,100043.88
2023-01-10T09:47:00.804Z,100053.38
2023-01-10T09:50:30.304Z,100064.91
2023-01-10T09:53:04.235Z,100070.53
2023-01-10T09:55:33.916Z,100073.78
2023-01-10T09:58:05.389Z,100076.47
2023-01-10T10:00:42.614Z,100074.34
2023-01-10T10:03:24.653Z,100076.03
2023-01-10T10:05:55.955Z,100074.56
2023-01-10T10:08:25.175Z,100079.44
2023-01-10T10:10:55.988Z,100075.53
2023-01-10T10:13:47.713Z,100073.50
2023-01-10T10:16:32.913Z,100068.97
2023-01-10T10:19:17.835Z,100067.22
2023-01-10T10:21:55.814Z,100058.00
2023-01-10T10:24:28.157Z,100060.78
2023-01-10T10:27:27.524Z,100059.47
2023-01-10T10:30:17.289Z,100060.53
2023-01-10T10:32:46.925Z,100052.72
2023-01-10T10:35:35.215Z,100040.38
2023-01-10T10:38:17.029Z,100040.38
2023-01-10T10:40:46.850Z,100040.94
2023-01-10T10:43:21.688Z,100033.38
2023-01-10T10:45:54.381Z,100036.94
2023-01-10T10:48:25.938Z,100030.25
2023-01-10T10:51:08.760Z,100036.44
2023-01-10T10:53:36.300Z,100037.88
2023-01-10T10:56:05.945Z,100030.88
2023-01-10T10:58:33.324Z,100028.75
2023-01-10T11:01:01.062Z,100023.19
2023-01-10T11:03:48.436Z,100020.22
2023-01-10T11:06:17.352Z,100013.56
2023-01-10T11:08:47.064Z,100009.50
2023-01-10T11:11:31.629Z,100007.31
2023-01-10T11:14:00.565Z,100002.06
2023-01-10T11:16:31.492Z,100000.47
2023-01-10T11:19:18.389Z,99990.28
2023-01-10T11:21:59.091Z,99985.50
2023-01-10T11:24:35.644Z,99990.38
2023-01-10T11:27:13.477Z,99972.66
2023-01-10T11:29:46.282Z,99967.59
2023-01-10T11:32:17.199Z,99959.88
2023-01-10T11:34:55.237Z,99962.03
2023-01-10T11:37:29.002Z,99953.19
2023-01-10T11:40:17.432Z,99953.22
2023-01-10T11:42:44.482Z,99944.94
2023-01-10T11:45:20.388Z,99939.31
2023-01-10T11:47:51.683Z,99941.22
2023-01-10T11:50:28.510Z,99926.72
2023-01-10T11:52:56.579Z,99931.91
2023-01-10T11:55:27.467Z,99922.00
2023-01-10T11:58:05.847Z,99924.16
2023-01-10T12:00:38.061Z,99938.72
2023-01-10T12:03:20.404Z,99925.28
2023-01-10T12:06:00.505Z,99925.03
2023-01-10T12:08:36.089Z,99926.38
2023-01-10T12:11:17.678Z,99926.41
2023-01-10T12:13:50.505Z,99923.44
2023-01-10T12:16:22.546Z,99919.44
2023-01-10T12:18:51.829Z,99926.75
2023-01-10T12:21:42.889Z,99915.16
2023-01-10T12:24:22.459Z,99916.31
2023-01-10T12:26:51.086Z,99907.47
2023-01-10T12:29:42.615Z,99894.53
2023-01-10T12:32:23.377Z,99887.28
2023-01-10T12:35:03.378Z,99886.75
2023-01-10T12:37:35.703Z,99878.69
2023-01-10T12:40:11.194Z,99876.78
2023-01-10T12:43:31.931Z,99875.44
2023-01-10T12:46:21.109Z,99872.50
2023-01-10T12:49:01.622Z,99878.97
2023-01-10T12:51:29.862Z,99880.03
2023-01-10T12:54:04.769Z,99876.03
2023-01-10T12:56:32.805Z,99874.94
2023-01-10T12:59:08.027Z,99873.34
2023-01-10T13:01:40.748Z,99866.88
2023-01-10T13:04:12.673Z,99871.19
2023-01-10T13:06:42.782Z,99869.03
2023-01-10T13:09:17.328Z,99865.00
2023-01-10T13:11:53.029Z,99857.69
2023-01-10T13:14:27.570Z,99844.78
2023-01-10T13:17:21.870Z,99832.38
2023-01-10T13:20:17.561Z,99852.06
2023-01-10T13:22:51.480Z,99847.22
2023-01-10T13:25:26.527Z,99846.41
2023-01-10T13:27:59.532Z,99844.75
2023-01-10T13:30:33.958Z,99842.63
2023-01-10T13:33:26.205Z,99842.38
2023-01-10T13:35:56.845Z,99851.78
2023-01-10T13:38:30.803Z,99852.56
2023-01-10T13:41:29.740Z,99846.38
2023-01-10T13:44:13.850Z,99850.16
2023-01-10T13:46:45.227Z,99850.16
2023-01-10T13:49:11.728Z,99846.91
2023-01-10T13:51:59.212Z,99833.44
2023-01-10T13:54:27.713Z,99833.44
2023-01-10T13:56:54.249Z,99839.63
2023-01-10T13:59:42.293Z,99837.75
2023-01-10T14:02:29.020Z,99836.66
2023-01-10T14:05:17.715Z,99842.03
2023-01-10T14:07:49.956Z,99840.44
2023-01-10T14:10:39.746Z,99840.97
2023-01-10T14:13:16.225Z,99828.59
2023-01-10T14:15:46.091Z,99829.13
2023-01-10T14:18:45.813Z,99824.28
2023-01-10T14:21:24.397Z,99817.56
2023-01-10T14:23:54.009Z,99819.97
2023-01-10T14:26:39.058Z,99817.81
2023-01-10T14:29:15.928Z,99817.25
2023-01-10T14:31:47.950Z,99810.25
2023-01-10T14:34:31.403Z,99804.09
2023-01-10T14:37:06.161Z,99801.09
2023-01-10T14:39:33.568Z,99803.78
2023-01-10T14:42:07.212Z,99796.25
2023-01-10T14:44:59.302Z,99797.34
2023-01-10T14:47:30.590Z,99799.72
2023-01-10T14:50:06.853Z,99798.41
2023-01-10T14:52:34.129Z,99794.88
2023-01-10T14:55:04.088Z,99790.84
2023-01-10T14:57:31.147Z,99792.75
2023-01-10T15:00:17.648Z,99788.69
2023-01-10T15:02:49.049Z,99775.78
2023-01-10T15:05:23.857Z,99768.00
2023-01-10T15:07:50.604Z,99771.72
2023-01-10T15:10:23.875Z,99777.63
2023-01-10T15:12:56.231Z,99766.09
2023-01-10T15:15:29.997Z,99765.53
2023-01-10T15:17:58.168Z,99763.94
2023-01-10T15:20:25.152Z,99764.19
2023-01-10T15:23:01.028Z,99763.91
2023-01-10T15:25:31.959Z,99754.50
2023-01-10T15:27:59.986Z,99747.19
2023-01-10T15:30:35.128Z,99741.25
2023-01-10T15:33:05.110Z,99743.97
2023-01-10T15:35:36.536Z,99730.50
2023-01-10T15:38:16.790Z,99730.22
2023-01-10T15:40:44.394Z,99732.13
2023-01-10T15:43:30.036Z,99720.81
2023-01-10T15:45:58.615Z,99729.38
2023-01-10T15:48:56.032Z,99707.34
2023-01-10T15:51:34.466Z,99707.34
2023-01-10T15:54:25.603Z,99716.22
2023-01-10T15:56:56.449Z,99715.41
2023-01-10T15:59:40.056Z,99708.41
2023-01-10T16:02:13.569Z,99701.13
2023-01-10T16:04:40.827Z,99702.50
2023-01-10T16:07:23.003Z,99701.41
2023-01-10T16:09:51.301Z,99696.53
2023-01-10T16:12:51.781Z,99691.16
2023-01-10T16:15:22.486Z,99693.31
2023-01-10T16:17:50.105Z,99687.94
2023-01-10T16:20:25.584Z,99688.47
2023-01-10T16:22:53.025Z,99683.09
2023-01-10T16:25:25.119Z,99689.53
2023-01-10T16:27:51.881Z,99679.06
2023-01-10T16:30:24.311Z,99682.81
2023-01-10T16:32:51.650Z,99676.09
2023-01-10T16:35:19.638Z,99671.25
2023-01-10T16:37:49.479Z,99682.00
2023-01-10T16:40:23.813Z,99677.97
2023-01-10T16:43:08.655Z,99677.16
2023-01-10T16:45:35.448Z,99666.94
2023-01-10T16:48:02.310Z,99670.41
2023-01-10T16:50:29.103Z,99671.19
2023-01-10T16:52:56.033Z,99666.63
2023-01-10T16:55:29.705Z,99664.19
2023-01-10T16:57:56.515Z,99653.97
2023-01-10T17:00:23.240Z,99647.53
2023-01-10T17:02:49.997Z,99631.69
2023-01-10T17:05:16.868Z,99642.16
2023-01-10T17:07:43.508Z,99639.72
2023-01-10T17:10:10.580Z,99633.56
2023-01-10T17:12:38.532Z,99636.78
2023-01-10T17:15:08.328Z,99627.13
2023-01-10T17:17:35.180Z,99622.81
2023-01-10T17:20:01.930Z,99617.97
2023-01-10T17:22:28.703Z,99614.75
2023-01-10T17:24:55.370Z,99615.25
2023-01-10T17:27:22.036Z,99612.84
2023-01-10T17:29:48.616Z,99605.59
2023-01-10T17:32:15.249Z,99606.66
2023-01-10T17:34:41.809Z,99613.63
2023-01-10T17:37:08.467Z,99609.03
2023-01-10T17:39:37.759Z,99610.84
2023-01-10T17:42:06.163Z,99599.31
2023-01-10T17:44:32.827Z,99609.50
2023-01-10T17:46:59.392Z,99610.56
2023-01-10T17:49:26.054Z,99612.44
2023-01-10T17:51:53.770Z,99608.13
2023-01-10T17:54:21.252Z,99599.03
2023-01-10T17:56:48.137Z,99591.53
2023-01-10T17:59:14.801Z,99591.00
2023-01-10T18:01:42.309Z,99589.38
2023-01-10T18:04:09.124Z,99581.88
2023-01-10T18:06:35.718Z,99595.59
2023-01-10T18:09:02.350Z,99584.31
2023-01-10T18:11:30.829Z,99581.41
2023-01-10T18:13:57.711Z,99579.50
2023-01-10T18:16:27.107Z,99581.13
2023-01-10T18:18:53.902Z,99580.31
2023-01-10T18:21:20.554Z,99571.19
2023-01-10T18:23:47.697Z,99569.84
2023-01-10T18:26:14.684Z,99560.47
2023-01-10T18:28:44.082Z,99553.50
2023-01-10T18:31:19.896Z,99551.88
2023-01-10T18:33:47.976Z,99557.25
2023-01-10T18:36:17.911Z,99541.16
2023-01-10T18:38:46.031Z,99546.53
2023-01-10T18:41:13.182Z,99543.84
2023-01-10T18:43:40.074Z,99547.06
2023-01-10T18:46:10.657Z,99540.63
2023-01-10T18:48:37.416Z,99532.03
2023-01-10T18:51:05.286Z,99538.50
2023-01-10T18:53:32.959Z,99537.41
2023-01-10T18:56:01.442Z,99526.44
2023-01-10T18:58:33.256Z,99515.16
2023-01-10T19:01:10.082Z,99534.50
2023-01-10T19:03:36.887Z,99526.97
2023-01-10T19:06:05.497Z,99527.81
2023-01-10T19:08:32.308Z,99516.78
2023-01-10T19:11:15.827Z,99528.34
2023-01-10T19:13:44.471Z,99518.66
2023-01-10T19:16:14.223Z,99515.44
2023-01-10T19:18:41.738Z,99514.63
2023-01-10T19:21:14.874Z,99513.31
2023-01-10T19:23:46.784Z,99503.66
2023-01-10T19:26:14.284Z,99503.09
2023-01-10T19:28:42.779Z,99501.78
2023-01-10T19:31:13.841Z,99496.66
2023-01-10T19:33:41.745Z,99494.00
2023-01-10T19:36:08.667Z,99489.19
2023-01-10T19:38:35.544Z,99484.88
2023-01-10T19:41:02.424Z,99492.41
2023-01-10T19:43:29.625Z,99487.28
2023-01-10T19:45:56.297Z,99477.91
2023-01-10T19:48:23.725Z,99474.13
2023-01-10T19:50:50.471Z,99470.38
2023-01-10T19:53:17.411Z,99477.06
2023-01-10T19:55:44.013Z,99473.59
2023-01-10T19:58:10.688Z,99463.94
2023-01-10T20:00:37.308Z,99460.97
2023-01-10T20:03:05.275Z,99469.31
2023-01-10T20:05:34.709Z,99467.97
2023-01-10T20:08:02.170Z,99458.03
2023-01-10T20:10:28.870Z,99459.09
2023-01-10T20:12:55.425Z,99454.25
2023-01-10T20:15:22.097Z,99457.47
2023-01-10T20:17:48.646Z,99446.72
2023-01-10T20:20:16.736Z,99452.09
2023-01-10T20:22:43.390Z,99450.50
2023-01-10T20:25:10.190Z,99451.31
2023-01-10T20:27:36.812Z,99455.88
2023-01-10T20:30:04.556Z,99449.72
2023-01-10T20:32:31.220Z,99455.34
2023-01-10T20:34:57.787Z,99445.66
2023-01-10T20:37:25.088Z,99449.44
2023-01-10T20:39:51.765Z,99438.69
2023-01-10T20:42:18.328Z,99441.91
2023-01-10T20:44:44.894Z,99429.56
2023-01-10T20:47:11.481Z,99427.41
2023-01-10T20:49:38.045Z,99437.59
2023-01-10T20:52:04.755Z,99433.84
2023-01-10T20:54:31.334Z,99420.94
2023-01-10T20:56:57.947Z,99422.03
2023-01-10T20:59:26.244Z,99427.41
2023-01-10T21:01:53.014Z,99433.31
2023-01-10T21:04:19.877Z,99408.06
2023-01-10T21:06:46.536Z,99419.34
2023-01-10T21:09:16.529Z,99423.09
2023-01-10T21:11:58.007Z,99407.50
2023-01-10T21:14:28.496Z,99400.78
2023-01-10T21:16:55.459Z,99400.78
2023-01-10T21:19:22.047Z,99395.66
2023-01-10T21:21:48.656Z,99389.75
2023-01-10T21:24:15.936Z,99398.34
2023-01-10T21:26:42.540Z,99383.56
2023-01-10T21:29:09.800Z,99390.81
2023-01-10T21:31:37.194Z,99385.72
2023-01-10T21:34:03.790Z,99385.44
2023-01-10T21:36:30.390Z,99398.34
2023-01-10T21:38:56.925Z,99392.66
2023-01-10T21:41:42.254Z,99379.22
2023-01-10T21:44:08.949Z,99377.88
2023-01-10T21:46:36.224Z,99375.69
2023-01-10T21:49:04.290Z,99380.53
2023-01-10T21:51:30.853Z,99377.31
2023-01-10T21:53:57.816Z,99370.31
2023-01-10T21:56:24.680Z,99361.38
2023-01-10T21:58:52.320Z,99369.19
2023-01-10T22:01:19.049Z,99367.03
2023-01-10T22:03:46.226Z,99357.88
2023-01-10T22:06:13.229Z,99362.69
2023-01-10T22:08:39.932Z,99370.72
2023-01-10T22:11:07.203Z,99370.22
2023-01-10T22:13:34.216Z,99371.25
2023-01-10T22:16:01.641Z,99368.28
2023-01-10T22:18:29.897Z,99363.16
2023-01-10T22:20:57.627Z,99354.53
2023-01-10T22:23:24.712Z,99359.91
2023-01-10T22:26:03.560Z,99358.03
2023-01-10T22:28:30.654Z,99356.13
2023-01-10T22:30:57.709Z,99349.41
2023-01-10T22:33:29.028Z,99350.47
2023-01-10T22:35:55.784Z,99360.94
2023-01-10T22:38:22.368Z,99352.88
2023-01-10T22:40:49.058Z,99349.09
2023-01-10T22:43:15.731Z,99353.91
2023-01-10T22:45:43.131Z,99346.41
2023-01-10T22:48:10.538Z,99356.59
2023-01-10T22:50:37.138Z,99349.84
2023-01-10T22:53:04.253Z,99346.88
2023-01-10T22:55:30.949Z,99322.94
2023-01-10T22:57:57.580Z,99332.34
2023-01-10T23:00:24.147Z,99333.69
2023-01-10T23:02:50.771Z,99328.81
2023-01-10T23:05:17.349Z,99314.28
2023-01-10T23:07:43.925Z,99301.63
2023-01-10T23:10:28.516Z,99300.00
2023-01-10T23:12:56.042Z,99292.47
2023-01-10T23:15:22.673Z,99302.38
2023-01-10T23:17:49.381Z,99294.03
2023-01-10T23:20:17.461Z,99303.69
2023-01-10T23:22:44.090Z,99303.38
2023-01-10T23:25:10.647Z,99307.13
2023-01-10T23:27:38.508Z,99310.34
2023-01-10T23:30:10.345Z,99301.41
2023-01-10T23:32:36.933Z,99304.63
2023-01-10T23:35:04.188Z,99292.50
2023-01-10T23:37:30.740Z,99293.00
2023-01-10T23:39:57.395Z,99293.25
2023-01-10T23:42:23.904Z,99300.75
2023-01-10T23:44:50.414Z,99291.84
2023-01-10T23:47:17.087Z,99292.63
2023-01-10T23:49:43.647Z,99294.47
2023-01-10T23:52:10.182Z,99296.88
2023-01-10T23:54:36.698Z,99285.31
2023-01-10T23:57:03.223Z,99293.63
2023-01-10T23:59:29.812Z,99287.09
